sensor_id;sensor_type;location;lat;lon;timestamp;P1;durP1;ratioP1;P2;durP2;ratioP2
45842;SDS011;31563;51.744;8.252;2023-04-03T00:01:11;2.83;;;0.88;;
45842;SDS011;31563;51.744;8.252;2023-04-03T00:03:40;2.75;;;0.82;;
45842;SDS011;31563;51.744;8.252;2023-04-03T00:06:10;3.70;;;0.75;;
45842;SDS011;31563;51.744;8.252;2023-04-03T00:08:39;3.50;;;1.05;;
45842;SDS011;31563;51.744;8.252;2023-04-03T00:11:07;3.47;;;0.98;;
45842;SDS011;31563;51.744;8.252;2023-04-03T00:13:36;1.70;;;0.88;;
45842;SDS011;31563;51.744;8.252;2023-04-03T00:16:06;3.03;;;1.00;;
45842;SDS011;31563;51.744;8.252;2023-04-03T00:18:35;2.83;;;0.77;;
45842;SDS011;31563;51.744;8.252;2023-04-03T00:21:04;2.00;;;0.87;;
45842;SDS011;31563;51.744;8.252;2023-04-03T00:23:34;2.15;;;0.70;;
45842;SDS011;31563;51.744;8.252;2023-04-03T00:26:02;1.77;;;0.80;;
45842;SDS011;31563;51.744;8.252;2023-04-03T00:28:30;2.40;;;0.85;;
45842;SDS011;31563;51.744;8.252;2023-04-03T00:30:59;1.67;;;0.52;;
45842;SDS011;31563;51.744;8.252;2023-04-03T00:33:27;2.55;;;1.20;;
45842;SDS011;31563;51.744;8.252;2023-04-03T00:35:55;5.07;;;1.30;;
45842;SDS011;31563;51.744;8.252;2023-04-03T00:38:23;1.83;;;0.80;;
45842;SDS011;31563;51.744;8.252;2023-04-03T00:40:53;1.88;;;0.65;;
45842;SDS011;31563;51.744;8.252;2023-04-03T00:43:22;2.00;;;0.70;;
45842;SDS011;31563;51.744;8.252;2023-04-03T00:45:53;2.42;;;0.68;;
45842;SDS011;31563;51.744;8.252;2023-04-03T00:48:22;3.08;;;0.93;;
45842;SDS011;31563;51.744;8.252;2023-04-03T00:50:55;1.75;;;0.70;;
45842;SDS011;31563;51.744;8.252;2023-04-03T00:53:25;2.80;;;0.80;;
45842;SDS011;31563;51.744;8.252;2023-04-03T00:55:59;2.97;;;0.80;;
45842;SDS011;31563;51.744;8.252;2023-04-03T00:58:32;2.10;;;0.85;;
45842;SDS011;31563;51.744;8.252;2023-04-03T01:01:05;1.42;;;0.70;;
45842;SDS011;31563;51.744;8.252;2023-04-03T01:03:35;1.33;;;0.70;;
45842;SDS011;31563;51.744;8.252;2023-04-03T01:06:04;4.43;;;0.70;;
45842;SDS011;31563;51.744;8.252;2023-04-03T01:08:32;1.85;;;0.82;;
45842;SDS011;31563;51.744;8.252;2023-04-03T01:11:03;1.92;;;0.63;;
45842;SDS011;31563;51.744;8.252;2023-04-03T01:13:32;1.77;;;0.80;;
45842;SDS011;31563;51.744;8.252;2023-04-03T01:18:30;2.25;;;0.60;;
45842;SDS011;31563;51.744;8.252;2023-04-03T01:24:15;1.95;;;0.60;;
45842;SDS011;31563;51.744;8.252;2023-04-03T01:26:50;1.20;;;0.60;;
45842;SDS011;31563;51.744;8.252;2023-04-03T01:29:18;2.30;;;0.70;;
45842;SDS011;31563;51.744;8.252;2023-04-03T01:31:52;2.05;;;0.60;;
45842;SDS011;31563;51.744;8.252;2023-04-03T01:34:22;1.70;;;0.50;;
45842;SDS011;31563;51.744;8.252;2023-04-03T01:36:50;1.25;;;0.70;;
45842;SDS011;31563;51.744;8.252;2023-04-03T01:39:19;1.70;;;0.60;;
45842;SDS011;31563;51.744;8.252;2023-04-03T01:41:48;1.52;;;0.70;;
45842;SDS011;31563;51.744;8.252;2023-04-03T01:44:17;1.52;;;0.65;;
45842;SDS011;31563;51.744;8.252;2023-04-03T01:46:45;1.55;;;0.68;;
45842;SDS011;31563;51.744;8.252;2023-04-03T01:49:15;0.70;;;0.50;;
45842;SDS011;31563;51.744;8.252;2023-04-03T01:51:43;1.27;;;0.50;;
45842;SDS011;31563;51.744;8.252;2023-04-03T01:54:11;3.15;;;0.70;;
45842;SDS011;31563;51.744;8.252;2023-04-03T01:56:39;1.08;;;0.50;;
45842;SDS011;31563;51.744;8.252;2023-04-03T01:59:07;1.05;;;0.40;;
45842;SDS011;31563;51.744;8.252;2023-04-03T02:01:36;1.65;;;0.60;;
45842;SDS011;31563;51.744;8.252;2023-04-03T02:04:04;0.88;;;0.50;;
45842;SDS011;31563;51.744;8.252;2023-04-03T02:06:34;2.13;;;0.63;;
45842;SDS011;31563;51.744;8.252;2023-04-03T02:09:02;1.75;;;0.60;;
45842;SDS011;31563;51.744;8.252;2023-04-03T02:11:31;2.17;;;0.70;;
45842;SDS011;31563;51.744;8.252;2023-04-03T02:13:59;0.80;;;0.50;;
45842;SDS011;31563;51.744;8.252;2023-04-03T02:16:27;1.27;;;0.50;;
45842;SDS011;31563;51.744;8.252;2023-04-03T02:18:57;1.85;;;0.60;;
45842;SDS011;31563;51.744;8.252;2023-04-03T02:21:25;1.25;;;0.47;;
45842;SDS011;31563;51.744;8.252;2023-04-03T02:23:55;1.50;;;0.68;;
45842;SDS011;31563;51.744;8.252;2023-04-03T02:26:23;1.30;;;0.45;;
45842;SDS011;31563;51.744;8.252;2023-04-03T02:28:52;1.53;;;0.70;;
45842;SDS011;31563;51.744;8.252;2023-04-03T02:31:21;2.90;;;0.88;;
45842;SDS011;31563;51.744;8.252;2023-04-03T02:33:50;1.33;;;0.65;;
45842;SDS011;31563;51.744;8.252;2023-04-03T02:36:18;1.33;;;0.60;;
45842;SDS011;31563;51.744;8.252;2023-04-03T02:38:46;0.73;;;0.45;;
45842;SDS011;31563;51.744;8.252;2023-04-03T02:41:16;1.88;;;0.73;;
45842;SDS011;31563;51.744;8.252;2023-04-03T02:43:44;0.98;;;0.60;;
45842;SDS011;31563;51.744;8.252;2023-04-03T02:46:12;1.50;;;0.52;;
45842;SDS011;31563;51.744;8.252;2023-04-03T02:48:42;1.63;;;0.40;;
45842;SDS011;31563;51.744;8.252;2023-04-03T02:51:10;1.45;;;0.60;;
45842;SDS011;31563;51.744;8.252;2023-04-03T02:53:38;0.98;;;0.50;;
45842;SDS011;31563;51.744;8.252;2023-04-03T02:56:06;0.75;;;0.40;;
45842;SDS011;31563;51.744;8.252;2023-04-03T02:58:36;1.67;;;0.77;;
45842;SDS011;31563;51.744;8.252;2023-04-03T03:01:04;0.75;;;0.45;;
45842;SDS011;31563;51.744;8.252;2023-04-03T03:03:32;1.50;;;0.50;;
45842;SDS011;31563;51.744;8.252;2023-04-03T03:06:01;1.85;;;0.57;;
45842;SDS011;31563;51.744;8.252;2023-04-03T03:08:30;1.20;;;0.50;;
45842;SDS011;31563;51.744;8.252;2023-04-03T03:10:58;1.75;;;0.63;;
45842;SDS011;31563;51.744;8.252;2023-04-03T03:13:26;1.10;;;0.52;;
45842;SDS011;31563;51.744;8.252;2023-04-03T03:15:56;1.35;;;0.60;;
45842;SDS011;31563;51.744;8.252;2023-04-03T03:18:24;1.30;;;0.70;;
45842;SDS011;31563;51.744;8.252;2023-04-03T03:20:53;1.35;;;0.40;;
45842;SDS011;31563;51.744;8.252;2023-04-03T03:23:22;1.60;;;0.50;;
45842;SDS011;31563;51.744;8.252;2023-04-03T03:25:54;1.67;;;0.73;;
45842;SDS011;31563;51.744;8.252;2023-04-03T03:28:22;0.95;;;0.30;;
45842;SDS011;31563;51.744;8.252;2023-04-03T03:30:50;1.13;;;0.60;;
45842;SDS011;31563;51.744;8.252;2023-04-03T03:33:20;1.55;;;0.70;;
45842;SDS011;31563;51.744;8.252;2023-04-03T03:35:48;1.05;;;0.50;;
45842;SDS011;31563;51.744;8.252;2023-04-03T03:38:16;1.42;;;0.43;;
45842;SDS011;31563;51.744;8.252;2023-04-03T03:40:46;1.60;;;0.60;;
45842;SDS011;31563;51.744;8.252;2023-04-03T03:43:14;0.70;;;0.43;;
45842;SDS011;31563;51.744;8.252;2023-04-03T03:45:42;1.20;;;0.60;;
45842;SDS011;31563;51.744;8.252;2023-04-03T03:48:11;0.95;;;0.40;;
45842;SDS011;31563;51.744;8.252;2023-04-03T03:50:41;1.13;;;0.60;;
45842;SDS011;31563;51.744;8.252;2023-04-03T03:53:09;1.17;;;0.50;;
45842;SDS011;31563;51.744;8.252;2023-04-03T03:55:37;1.27;;;0.43;;
45842;SDS011;31563;51.744;8.252;2023-04-03T03:58:05;2.17;;;0.77;;
45842;SDS011;31563;51.744;8.252;2023-04-03T04:00:34;1.55;;;0.50;;
45842;SDS011;31563;51.744;8.252;2023-04-03T04:03:02;1.42;;;0.50;;
45842;SDS011;31563;51.744;8.252;2023-04-03T04:05:31;0.95;;;0.40;;
45842;SDS011;31563;51.744;8.252;2023-04-03T04:08:00;1.45;;;0.65;;
45842;SDS011;31563;51.744;8.252;2023-04-03T04:10:28;0.52;;;0.32;;
45842;SDS011;31563;51.744;8.252;2023-04-03T04:12:56;1.67;;;0.50;;
45842;SDS011;31563;51.744;8.252;2023-04-03T04:15:24;1.10;;;0.50;;
45842;SDS011;31563;51.744;8.252;2023-04-03T04:17:53;0.75;;;0.43;;
45842;SDS011;31563;51.744;8.252;2023-04-03T04:20:21;1.25;;;0.50;;
45842;SDS011;31563;51.744;8.252;2023-04-03T04:22:50;0.80;;;0.40;;
45842;SDS011;31563;51.744;8.252;2023-04-03T04:25:19;1.20;;;0.40;;
45842;SDS011;31563;51.744;8.252;2023-04-03T04:27:47;0.98;;;0.40;;
45842;SDS011;31563;51.744;8.252;2023-04-03T04:30:15;1.02;;;0.43;;
45842;SDS011;31563;51.744;8.252;2023-04-03T04:32:43;0.50;;;0.30;;
45842;SDS011;31563;51.744;8.252;2023-04-03T04:35:12;0.93;;;0.43;;
45842;SDS011;31563;51.744;8.252;2023-04-03T04:37:42;1.00;;;0.43;;
45842;SDS011;31563;51.744;8.252;2023-04-03T04:40:11;1.25;;;0.82;;
45842;SDS011;31563;51.744;8.252;2023-04-03T04:42:40;0.77;;;0.40;;
45842;SDS011;31563;51.744;8.252;2023-04-03T04:45:09;0.77;;;0.50;;
45842;SDS011;31563;51.744;8.252;2023-04-03T04:47:37;1.17;;;0.40;;
45842;SDS011;31563;51.744;8.252;2023-04-03T04:50:06;1.13;;;0.40;;
45842;SDS011;31563;51.744;8.252;2023-04-03T04:52:34;1.25;;;0.50;;
45842;SDS011;31563;51.744;8.252;2023-04-03T04:55:03;1.48;;;0.40;;
45842;SDS011;31563;51.744;8.252;2023-04-03T04:57:32;1.50;;;0.50;;
45842;SDS011;31563;51.744;8.252;2023-04-03T05:00:03;0.93;;;0.50;;
45842;SDS011;31563;51.744;8.252;2023-04-03T05:02:31;1.70;;;0.38;;
45842;SDS011;31563;51.744;8.252;2023-04-03T05:05:00;1.38;;;0.60;;
45842;SDS011;31563;51.744;8.252;2023-04-03T05:07:30;1.20;;;0.45;;
45842;SDS011;31563;51.744;8.252;2023-04-03T05:09:58;1.23;;;0.40;;
45842;SDS011;31563;51.744;8.252;2023-04-03T05:12:27;0.95;;;0.40;;
45842;SDS011;31563;51.744;8.252;2023-04-03T05:14:55;0.90;;;0.43;;
45842;SDS011;31563;51.744;8.252;2023-04-03T05:17:24;0.60;;;0.47;;
45842;SDS011;31563;51.744;8.252;2023-04-03T05:19:52;0.70;;;0.45;;
45842;SDS011;31563;51.744;8.252;2023-04-03T05:22:20;0.93;;;0.55;;
45842;SDS011;31563;51.744;8.252;2023-04-03T05:24:49;0.88;;;0.50;;
45842;SDS011;31563;51.744;8.252;2023-04-03T05:27:17;0.90;;;0.40;;
45842;SDS011;31563;51.744;8.252;2023-04-03T05:29:45;1.35;;;0.50;;
45842;SDS011;31563;51.744;8.252;2023-04-03T05:32:13;0.80;;;0.45;;
45842;SDS011;31563;51.744;8.252;2023-04-03T05:34:42;1.17;;;0.50;;
45842;SDS011;31563;51.744;8.252;2023-04-03T05:37:11;0.98;;;0.30;;
45842;SDS011;31563;51.744;8.252;2023-04-03T05:39:39;0.70;;;0.60;;
45842;SDS011;31563;51.744;8.252;2023-04-03T05:42:07;1.02;;;0.40;;
45842;SDS011;31563;51.744;8.252;2023-04-03T05:44:37;0.75;;;0.47;;
45842;SDS011;31563;51.744;8.252;2023-04-03T05:47:07;3.25;;;1.27;;
45842;SDS011;31563;51.744;8.252;2023-04-03T05:49:35;2.75;;;1.05;;
45842;SDS011;31563;51.744;8.252;2023-04-03T05:52:10;5.07;;;1.73;;
45842;SDS011;31563;51.744;8.252;2023-04-03T05:54:45;4.10;;;1.45;;
45842;SDS011;31563;51.744;8.252;2023-04-03T05:57:14;5.53;;;1.55;;
45842;SDS011;31563;51.744;8.252;2023-04-03T05:59:43;3.45;;;1.77;;
45842;SDS011;31563;51.744;8.252;2023-04-03T06:02:14;4.03;;;1.53;;
45842;SDS011;31563;51.744;8.252;2023-04-03T06:04:43;6.22;;;1.80;;
45842;SDS011;31563;51.744;8.252;2023-04-03T06:07:14;5.40;;;2.00;;
45842;SDS011;31563;51.744;8.252;2023-04-03T06:09:44;4.07;;;1.80;;
45842;SDS011;31563;51.744;8.252;2023-04-03T06:12:12;5.55;;;2.15;;
45842;SDS011;31563;51.744;8.252;2023-04-03T06:14:41;3.88;;;1.45;;
45842;SDS011;31563;51.744;8.252;2023-04-03T06:17:09;5.03;;;1.40;;
45842;SDS011;31563;51.744;8.252;2023-04-03T06:19:38;4.63;;;1.33;;
45842;SDS011;31563;51.744;8.252;2023-04-03T06:22:07;3.00;;;1.20;;
45842;SDS011;31563;51.744;8.252;2023-04-03T06:24:37;4.07;;;1.30;;
45842;SDS011;31563;51.744;8.252;2023-04-03T06:27:05;4.47;;;1.50;;
45842;SDS011;31563;51.744;8.252;2023-04-03T06:29:33;3.78;;;1.30;;
45842;SDS011;31563;51.744;8.252;2023-04-03T06:32:01;5.93;;;1.77;;
45842;SDS011;31563;51.744;8.252;2023-04-03T06:34:29;5.53;;;1.83;;
45842;SDS011;31563;51.744;8.252;2023-04-03T06:36:58;4.35;;;1.20;;
45842;SDS011;31563;51.744;8.252;2023-04-03T06:39:26;4.05;;;1.50;;
45842;SDS011;31563;51.744;8.252;2023-04-03T06:41:57;3.85;;;1.52;;
45842;SDS011;31563;51.744;8.252;2023-04-03T06:44:25;4.43;;;1.77;;
45842;SDS011;31563;51.744;8.252;2023-04-03T06:46:53;2.83;;;1.17;;
45842;SDS011;31563;51.744;8.252;2023-04-03T06:49:21;2.72;;;1.17;;
45842;SDS011;31563;51.744;8.252;2023-04-03T06:51:49;2.95;;;1.20;;
45842;SDS011;31563;51.744;8.252;2023-04-03T06:54:18;3.08;;;1.10;;
45842;SDS011;31563;51.744;8.252;2023-04-03T06:56:46;3.90;;;1.10;;
45842;SDS011;31563;51.744;8.252;2023-04-03T06:59:15;2.72;;;0.90;;
45842;SDS011;31563;51.744;8.252;2023-04-03T07:01:44;3.60;;;1.10;;
45842;SDS011;31563;51.744;8.252;2023-04-03T07:04:12;2.90;;;0.90;;
45842;SDS011;31563;51.744;8.252;2023-04-03T07:06:41;1.92;;;0.93;;
45842;SDS011;31563;51.744;8.252;2023-04-03T07:09:09;4.40;;;1.38;;
45842;SDS011;31563;51.744;8.252;2023-04-03T07:11:38;2.70;;;1.10;;
45842;SDS011;31563;51.744;8.252;2023-04-03T07:14:07;2.45;;;1.35;;
45842;SDS011;31563;51.744;8.252;2023-04-03T07:16:36;3.15;;;1.10;;
45842;SDS011;31563;51.744;8.252;2023-04-03T07:19:07;4.70;;;1.13;;
45842;SDS011;31563;51.744;8.252;2023-04-03T07:21:36;3.42;;;1.35;;
45842;SDS011;31563;51.744;8.252;2023-04-03T07:24:04;2.92;;;1.10;;
45842;SDS011;31563;51.744;8.252;2023-04-03T07:26:36;2.33;;;0.95;;
45842;SDS011;31563;51.744;8.252;2023-04-03T07:29:04;1.90;;;0.88;;
45842;SDS011;31563;51.744;8.252;2023-04-03T07:31:32;1.75;;;0.85;;
45842;SDS011;31563;51.744;8.252;2023-04-03T07:34:02;3.83;;;1.00;;
45842;SDS011;31563;51.744;8.252;2023-04-03T07:36:30;3.13;;;1.25;;
45842;SDS011;31563;51.744;8.252;2023-04-03T07:38:59;1.95;;;0.80;;
45842;SDS011;31563;51.744;8.252;2023-04-03T07:41:27;3.25;;;0.95;;
45842;SDS011;31563;51.744;8.252;2023-04-03T07:43:56;4.95;;;1.35;;
45842;SDS011;31563;51.744;8.252;2023-04-03T07:46:24;4.07;;;1.20;;
45842;SDS011;31563;51.744;8.252;2023-04-03T07:48:53;3.35;;;1.25;;
45842;SDS011;31563;51.744;8.252;2023-04-03T07:51:25;2.08;;;0.85;;
45842;SDS011;31563;51.744;8.252;2023-04-03T07:53:54;3.53;;;0.90;;
45842;SDS011;31563;51.744;8.252;2023-04-03T07:56:22;3.38;;;0.80;;
45842;SDS011;31563;51.744;8.252;2023-04-03T07:58:51;5.03;;;1.17;;
45842;SDS011;31563;51.744;8.252;2023-04-03T08:01:19;5.68;;;1.20;;
45842;SDS011;31563;51.744;8.252;2023-04-03T08:03:48;3.22;;;0.95;;
45842;SDS011;31563;51.744;8.252;2023-04-03T08:06:17;2.30;;;1.00;;
45842;SDS011;31563;51.744;8.252;2023-04-03T08:08:59;2.30;;;1.00;;
45842;SDS011;31563;51.744;8.252;2023-04-03T08:11:28;4.32;;;0.77;;
45842;SDS011;31563;51.744;8.252;2023-04-03T08:13:57;2.90;;;1.02;;
45842;SDS011;31563;51.744;8.252;2023-04-03T08:16:25;3.65;;;1.23;;
45842;SDS011;31563;51.744;8.252;2023-04-03T08:18:54;3.28;;;1.15;;
45842;SDS011;31563;51.744;8.252;2023-04-03T08:21:22;2.97;;;0.98;;
45842;SDS011;31563;51.744;8.252;2023-04-03T08:23:51;5.28;;;0.90;;
45842;SDS011;31563;51.744;8.252;2023-04-03T08:26:20;3.65;;;0.90;;
45842;SDS011;31563;51.744;8.252;2023-04-03T08:31:18;3.05;;;0.85;;
45842;SDS011;31563;51.744;8.252;2023-04-03T08:33:47;1.48;;;0.80;;
45842;SDS011;31563;51.744;8.252;2023-04-03T08:36:17;3.80;;;0.90;;
45842;SDS011;31563;51.744;8.252;2023-04-03T08:38:46;2.63;;;0.70;;
45842;SDS011;31563;51.744;8.252;2023-04-03T08:41:16;1.60;;;0.75;;
45842;SDS011;31563;51.744;8.252;2023-04-03T08:43:58;2.35;;;0.70;;
45842;SDS011;31563;51.744;8.252;2023-04-03T08:46:40;1.85;;;0.70;;
45842;SDS011;31563;51.744;8.252;2023-04-03T08:49:17;1.73;;;0.88;;
45842;SDS011;31563;51.744;8.252;2023-04-03T08:51:50;2.15;;;0.57;;
45842;SDS011;31563;51.744;8.252;2023-04-03T08:54:24;1.92;;;0.80;;
45842;SDS011;31563;51.744;8.252;2023-04-03T08:57:01;1.58;;;0.57;;
45842;SDS011;31563;51.744;8.252;2023-04-03T08:59:32;3.55;;;0.70;;
45842;SDS011;31563;51.744;8.252;2023-04-03T09:02:04;1.40;;;0.52;;
45842;SDS011;31563;51.744;8.252;2023-04-03T09:04:44;1.60;;;0.50;;
45842;SDS011;31563;51.744;8.252;2023-04-03T09:07:13;1.85;;;0.73;;
45842;SDS011;31563;51.744;8.252;2023-04-03T09:09:47;2.00;;;0.73;;
45842;SDS011;31563;51.744;8.252;2023-04-03T09:12:19;1.10;;;0.45;;
45842;SDS011;31563;51.744;8.252;2023-04-03T09:14:55;1.63;;;0.70;;
45842;SDS011;31563;51.744;8.252;2023-04-03T09:17:35;1.25;;;0.40;;
45842;SDS011;31563;51.744;8.252;2023-04-03T09:20:13;1.35;;;0.50;;
45842;SDS011;31563;51.744;8.252;2023-04-03T09:22:46;1.05;;;0.52;;
45842;SDS011;31563;51.744;8.252;2023-04-03T09:25:19;2.30;;;0.50;;
45842;SDS011;31563;51.744;8.252;2023-04-03T09:27:51;1.70;;;0.40;;
45842;SDS011;31563;51.744;8.252;2023-04-03T09:30:20;1.75;;;0.70;;
45842;SDS011;31563;51.744;8.252;2023-04-03T09:32:51;4.43;;;0.65;;
45842;SDS011;31563;51.744;8.252;2023-04-03T09:35:22;1.75;;;0.55;;
45842;SDS011;31563;51.744;8.252;2023-04-03T09:38:16;3.13;;;0.60;;
45842;SDS011;31563;51.744;8.252;2023-04-03T09:40:47;1.77;;;0.50;;
45842;SDS011;31563;51.744;8.252;2023-04-03T09:46:22;3.35;;;0.50;;
45842;SDS011;31563;51.744;8.252;2023-04-03T09:48:56;2.63;;;0.50;;
45842;SDS011;31563;51.744;8.252;2023-04-03T09:51:33;2.40;;;0.60;;
45842;SDS011;31563;51.744;8.252;2023-04-03T09:54:04;2.65;;;0.70;;
45842;SDS011;31563;51.744;8.252;2023-04-03T09:56:53;9.18;;;0.82;;
45842;SDS011;31563;51.744;8.252;2023-04-03T09:59:24;3.72;;;0.70;;
45842;SDS011;31563;51.744;8.252;2023-04-03T10:01:56;3.05;;;0.80;;
45842;SDS011;31563;51.744;8.252;2023-04-03T10:04:26;3.70;;;0.70;;
45842;SDS011;31563;51.744;8.252;2023-04-03T10:09:54;2.58;;;0.40;;
45842;SDS011;31563;51.744;8.252;2023-04-03T10:12:22;2.03;;;0.30;;
45842;SDS011;31563;51.744;8.252;2023-04-03T10:14:55;3.08;;;0.50;;
45842;SDS011;31563;51.744;8.252;2023-04-03T10:17:28;2.47;;;0.47;;
45842;SDS011;31563;51.744;8.252;2023-04-03T10:20:03;2.38;;;0.50;;
45842;SDS011;31563;51.744;8.252;2023-04-03T10:22:44;2.58;;;0.43;;
45842;SDS011;31563;51.744;8.252;2023-04-03T10:25:24;0.98;;;0.30;;
45842;SDS011;31563;51.744;8.252;2023-04-03T10:27:58;2.08;;;0.30;;
45842;SDS011;31563;51.744;8.252;2023-04-03T10:30:33;1.15;;;0.32;;
45842;SDS011;31563;51.744;8.252;2023-04-03T10:33:14;1.50;;;0.47;;
45842;SDS011;31563;51.744;8.252;2023-04-03T10:38:23;1.58;;;0.52;;
45842;SDS011;31563;51.744;8.252;2023-04-03T10:40:59;5.28;;;0.77;;
45842;SDS011;31563;51.744;8.252;2023-04-03T10:43:33;3.30;;;0.50;;
45842;SDS011;31563;51.744;8.252;2023-04-03T10:46:11;2.35;;;0.57;;
45842;SDS011;31563;51.744;8.252;2023-04-03T10:48:48;4.60;;;0.60;;
45842;SDS011;31563;51.744;8.252;2023-04-03T10:51:25;1.90;;;0.50;;
45842;SDS011;31563;51.744;8.252;2023-04-03T10:54:00;3.55;;;0.40;;
45842;SDS011;31563;51.744;8.252;2023-04-03T10:56:35;2.00;;;0.52;;
45842;SDS011;31563;51.744;8.252;2023-04-03T10:59:12;1.65;;;0.60;;
45842;SDS011;31563;51.744;8.252;2023-04-03T11:01:50;3.53;;;0.50;;
45842;SDS011;31563;51.744;8.252;2023-04-03T11:04:23;4.18;;;0.50;;
45842;SDS011;31563;51.744;8.252;2023-04-03T11:06:56;4.00;;;2.35;;
45842;SDS011;31563;51.744;8.252;2023-04-03T11:09:27;2.17;;;0.88;;
45842;SDS011;31563;51.744;8.252;2023-04-03T11:12:00;2.65;;;0.43;;
45842;SDS011;31563;51.744;8.252;2023-04-03T11:14:32;2.40;;;0.60;;
45842;SDS011;31563;51.744;8.252;2023-04-03T11:17:23;2.38;;;0.85;;
45842;SDS011;31563;51.744;8.252;2023-04-03T11:19:59;2.42;;;0.90;;
45842;SDS011;31563;51.744;8.252;2023-04-03T11:22:34;2.97;;;0.90;;
45842;SDS011;31563;51.744;8.252;2023-04-03T11:25:13;3.53;;;0.57;;
45842;SDS011;31563;51.744;8.252;2023-04-03T11:27:47;1.88;;;0.70;;
45842;SDS011;31563;51.744;8.252;2023-04-03T11:30:19;2.45;;;0.70;;
45842;SDS011;31563;51.744;8.252;2023-04-03T11:32:55;1.55;;;0.65;;
45842;SDS011;31563;51.744;8.252;2023-04-03T11:35:45;1.80;;;0.52;;
45842;SDS011;31563;51.744;8.252;2023-04-03T11:38:18;2.33;;;0.63;;
45842;SDS011;31563;51.744;8.252;2023-04-03T11:40:52;1.92;;;0.55;;
45842;SDS011;31563;51.744;8.252;2023-04-03T11:43:24;0.93;;;0.52;;
45842;SDS011;31563;51.744;8.252;2023-04-03T11:45:56;0.73;;;0.43;;
45842;SDS011;31563;51.744;8.252;2023-04-03T11:48:45;1.05;;;0.40;;
45842;SDS011;31563;51.744;8.252;2023-04-03T11:51:40;0.80;;;0.40;;
45842;SDS011;31563;51.744;8.252;2023-04-03T12:00:50;1.02;;;0.43;;
45842;SDS011;31563;51.744;8.252;2023-04-03T12:03:33;0.80;;;0.40;;
45842;SDS011;31563;51.744;8.252;2023-04-03T12:12:27;1.83;;;0.50;;
45842;SDS011;31563;51.744;8.252;2023-04-03T12:15:11;3.17;;;0.60;;
45842;SDS011;31563;51.744;8.252;2023-04-03T12:17:48;1.63;;;0.60;;
45842;SDS011;31563;51.744;8.252;2023-04-03T12:23:23;3.20;;;0.75;;
45842;SDS011;31563;51.744;8.252;2023-04-03T12:25:55;2.63;;;0.52;;
45842;SDS011;31563;51.744;8.252;2023-04-03T12:28:45;5.05;;;1.13;;
45842;SDS011;31563;51.744;8.252;2023-04-03T12:31:15;3.00;;;1.05;;
45842;SDS011;31563;51.744;8.252;2023-04-03T12:33:52;2.20;;;0.70;;
45842;SDS011;31563;51.744;8.252;2023-04-03T12:36:39;1.98;;;0.80;;
45842;SDS011;31563;51.744;8.252;2023-04-03T12:39:22;2.35;;;0.80;;
45842;SDS011;31563;51.744;8.252;2023-04-03T12:42:06;4.53;;;1.03;;
45842;SDS011;31563;51.744;8.252;2023-04-03T12:44:46;2.28;;;0.70;;
45842;SDS011;31563;51.744;8.252;2023-04-03T12:47:23;3.33;;;0.70;;
45842;SDS011;31563;51.744;8.252;2023-04-03T12:49:54;2.50;;;0.88;;
45842;SDS011;31563;51.744;8.252;2023-04-03T12:52:30;3.15;;;0.90;;
45842;SDS011;31563;51.744;8.252;2023-04-03T12:55:03;1.65;;;0.75;;
45842;SDS011;31563;51.744;8.252;2023-04-03T12:57:37;2.47;;;0.85;;
45842;SDS011;31563;51.744;8.252;2023-04-03T13:00:18;3.22;;;0.70;;
45842;SDS011;31563;51.744;8.252;2023-04-03T13:02:48;3.33;;;1.05;;
45842;SDS011;31563;51.744;8.252;2023-04-03T13:05:17;2.17;;;0.70;;
45842;SDS011;31563;51.744;8.252;2023-04-03T13:07:48;1.80;;;0.80;;
45842;SDS011;31563;51.744;8.252;2023-04-03T13:10:17;2.20;;;0.80;;
45842;SDS011;31563;51.744;8.252;2023-04-03T13:12:49;1.75;;;0.47;;
45842;SDS011;31563;51.744;8.252;2023-04-03T13:15:21;3.20;;;0.75;;
45842;SDS011;31563;51.744;8.252;2023-04-03T13:17:52;2.15;;;0.70;;
45842;SDS011;31563;51.744;8.252;2023-04-03T13:20:22;1.63;;;0.70;;
45842;SDS011;31563;51.744;8.252;2023-04-03T13:22:57;4.15;;;0.70;;
45842;SDS011;31563;51.744;8.252;2023-04-03T13:25:28;1.98;;;0.52;;
45842;SDS011;31563;51.744;8.252;2023-04-03T13:28:01;2.53;;;0.80;;
45842;SDS011;31563;51.744;8.252;2023-04-03T13:30:39;1.95;;;0.70;;
45842;SDS011;31563;51.744;8.252;2023-04-03T13:33:21;1.67;;;0.57;;
45842;SDS011;31563;51.744;8.252;2023-04-03T13:35:55;1.50;;;0.67;;
45842;SDS011;31563;51.744;8.252;2023-04-03T13:38:25;2.13;;;0.68;;
45842;SDS011;31563;51.744;8.252;2023-04-03T13:40:58;1.38;;;0.57;;
45842;SDS011;31563;51.744;8.252;2023-04-03T13:43:31;2.20;;;0.60;;
45842;SDS011;31563;51.744;8.252;2023-04-03T13:46:02;1.42;;;0.50;;
45842;SDS011;31563;51.744;8.252;2023-04-03T13:48:37;1.20;;;0.50;;
45842;SDS011;31563;51.744;8.252;2023-04-03T13:51:16;1.20;;;0.40;;
45842;SDS011;31563;51.744;8.252;2023-04-03T13:53:48;1.40;;;0.50;;
45842;SDS011;31563;51.744;8.252;2023-04-03T13:56:22;1.40;;;0.50;;
45842;SDS011;31563;51.744;8.252;2023-04-03T13:58:59;1.65;;;0.50;;
45842;SDS011;31563;51.744;8.252;2023-04-03T14:01:39;2.07;;;0.70;;
45842;SDS011;31563;51.744;8.252;2023-04-03T14:04:11;0.90;;;0.50;;
45842;SDS011;31563;51.744;8.252;2023-04-03T14:06:43;2.83;;;0.60;;
45842;SDS011;31563;51.744;8.252;2023-04-03T14:09:12;1.55;;;0.55;;
45842;SDS011;31563;51.744;8.252;2023-04-03T14:11:41;1.67;;;0.60;;
45842;SDS011;31563;51.744;8.252;2023-04-03T14:14:13;2.20;;;1.08;;
45842;SDS011;31563;51.744;8.252;2023-04-03T14:16:44;1.63;;;0.50;;
45842;SDS011;31563;51.744;8.252;2023-04-03T14:19:19;1.60;;;0.90;;
45842;SDS011;31563;51.744;8.252;2023-04-03T14:21:49;2.53;;;0.70;;
45842;SDS011;31563;51.744;8.252;2023-04-03T14:24:19;2.42;;;0.80;;
45842;SDS011;31563;51.744;8.252;2023-04-03T14:26:48;1.73;;;0.55;;
45842;SDS011;31563;51.744;8.252;2023-04-03T14:29:19;1.77;;;0.50;;
45842;SDS011;31563;51.744;8.252;2023-04-03T14:31:49;1.63;;;0.55;;
45842;SDS011;31563;51.744;8.252;2023-04-03T14:34:37;1.80;;;0.60;;
45842;SDS011;31563;51.744;8.252;2023-04-03T14:37:05;0.90;;;0.30;;
45842;SDS011;31563;51.744;8.252;2023-04-03T14:39:36;2.25;;;0.50;;
45842;SDS011;31563;51.744;8.252;2023-04-03T14:42:04;0.95;;;0.30;;
45842;SDS011;31563;51.744;8.252;2023-04-03T14:44:34;2.22;;;0.38;;
45842;SDS011;31563;51.744;8.252;2023-04-03T14:47:02;2.08;;;0.47;;
45842;SDS011;31563;51.744;8.252;2023-04-03T14:49:33;1.35;;;0.40;;
45842;SDS011;31563;51.744;8.252;2023-04-03T14:52:01;1.95;;;0.32;;
45842;SDS011;31563;51.744;8.252;2023-04-03T14:54:30;1.17;;;0.35;;
45842;SDS011;31563;51.744;8.252;2023-04-03T14:56:59;3.30;;;0.43;;
45842;SDS011;31563;51.744;8.252;2023-04-03T14:59:28;0.88;;;0.30;;
45842;SDS011;31563;51.744;8.252;2023-04-03T15:01:59;1.10;;;0.40;;
45842;SDS011;31563;51.744;8.252;2023-04-03T15:04:27;1.95;;;0.32;;
45842;SDS011;31563;51.744;8.252;2023-04-03T15:06:56;1.42;;;0.30;;
45842;SDS011;31563;51.744;8.252;2023-04-03T15:09:25;1.02;;;0.40;;
45842;SDS011;31563;51.744;8.252;2023-04-03T15:11:55;1.33;;;0.40;;
45842;SDS011;31563;51.744;8.252;2023-04-03T15:14:23;1.20;;;0.20;;
45842;SDS011;31563;51.744;8.252;2023-04-03T15:19:43;0.63;;;0.30;;
45842;SDS011;31563;51.744;8.252;2023-04-03T15:22:12;0.57;;;0.20;;
45842;SDS011;31563;51.744;8.252;2023-04-03T15:24:42;1.05;;;0.40;;
45842;SDS011;31563;51.744;8.252;2023-04-03T15:27:11;1.60;;;0.30;;
45842;SDS011;31563;51.744;8.252;2023-04-03T15:29:42;0.47;;;0.20;;
45842;SDS011;31563;51.744;8.252;2023-04-03T15:32:11;5.03;;;0.40;;
45842;SDS011;31563;51.744;8.252;2023-04-03T15:34:41;2.67;;;0.40;;
45842;SDS011;31563;51.744;8.252;2023-04-03T15:37:09;2.05;;;0.30;;
45842;SDS011;31563;51.744;8.252;2023-04-03T15:39:37;3.35;;;0.45;;
45842;SDS011;31563;51.744;8.252;2023-04-03T15:44:34;2.83;;;0.30;;
45842;SDS011;31563;51.744;8.252;2023-04-03T15:49:31;2.45;;;0.30;;
45842;SDS011;31563;51.744;8.252;2023-04-03T15:52:01;1.27;;;0.30;;